sensor_id;sensor_type;location;lat;lon;timestamp;P1;durP1;ratioP1;P2;durP2;ratioP2
25479;SDS011;13393;49.378;8.686;2023-07-31T00:02:19;5.22;;;2.15;;
25479;SDS011;13393;49.378;8.686;2023-07-31T00:04:46;2.70;;;1.55;;
25479;SDS011;13393;49.378;8.686;2023-07-31T00:07:14;4.03;;;1.80;;
25479;SDS011;13393;49.378;8.686;2023-07-31T00:09:40;7.03;;;1.77;;
25479;SDS011;13393;49.378;8.686;2023-07-31T00:12:08;4.05;;;1.98;;
25479;SDS011;13393;49.378;8.686;2023-07-31T00:14:35;7.03;;;1.92;;
25479;SDS011;13393;49.378;8.686;2023-07-31T00:17:01;3.95;;;1.70;;
25479;SDS011;13393;49.378;8.686;2023-07-31T00:19:28;5.47;;;2.00;;
25479;SDS011;13393;49.378;8.686;2023-07-31T00:21:54;7.85;;;1.90;;
25479;SDS011;13393;49.378;8.686;2023-07-31T00:24:21;5.75;;;2.15;;
25479;SDS011;13393;49.378;8.686;2023-07-31T00:26:47;4.50;;;1.80;;
25479;SDS011;13393;49.378;8.686;2023-07-31T00:29:15;5.38;;;1.80;;
25479;SDS011;13393;49.378;8.686;2023-07-31T00:31:44;5.60;;;1.95;;
25479;SDS011;13393;49.378;8.686;2023-07-31T00:34:11;3.65;;;1.83;;
25479;SDS011;13393;49.378;8.686;2023-07-31T00:36:37;5.40;;;2.00;;
25479;SDS011;13393;49.378;8.686;2023-07-31T00:39:04;3.30;;;1.83;;
25479;SDS011;13393;49.378;8.686;2023-07-31T00:41:30;2.78;;;1.80;;
25479;SDS011;13393;49.378;8.686;2023-07-31T00:43:57;2.83;;;1.80;;
25479;SDS011;13393;49.378;8.686;2023-07-31T00:46:25;5.05;;;2.08;;
25479;SDS011;13393;49.378;8.686;2023-07-31T00:48:52;4.78;;;1.65;;
25479;SDS011;13393;49.378;8.686;2023-07-31T00:51:21;4.25;;;1.83;;
25479;SDS011;13393;49.378;8.686;2023-07-31T00:53:48;5.88;;;1.95;;
25479;SDS011;13393;49.378;8.686;2023-07-31T00:56:15;4.53;;;2.13;;
25479;SDS011;13393;49.378;8.686;2023-07-31T00:58:42;6.18;;;1.90;;
25479;SDS011;13393;49.378;8.686;2023-07-31T01:01:09;8.07;;;2.20;;
25479;SDS011;13393;49.378;8.686;2023-07-31T01:03:36;5.75;;;1.88;;
25479;SDS011;13393;49.378;8.686;2023-07-31T01:06:08;5.30;;;2.03;;
25479;SDS011;13393;49.378;8.686;2023-07-31T01:08:38;4.00;;;1.88;;
25479;SDS011;13393;49.378;8.686;2023-07-31T01:11:07;3.00;;;1.73;;
25479;SDS011;13393;49.378;8.686;2023-07-31T01:13:37;2.63;;;1.52;;
25479;SDS011;13393;49.378;8.686;2023-07-31T01:16:03;2.85;;;1.77;;
25479;SDS011;13393;49.378;8.686;2023-07-31T01:18:30;2.28;;;1.60;;
25479;SDS011;13393;49.378;8.686;2023-07-31T01:21:01;3.30;;;1.70;;
25479;SDS011;13393;49.378;8.686;2023-07-31T01:23:35;3.40;;;1.90;;
25479;SDS011;13393;49.378;8.686;2023-07-31T01:26:08;5.03;;;1.65;;
25479;SDS011;13393;49.378;8.686;2023-07-31T01:28:40;5.72;;;2.00;;
25479;SDS011;13393;49.378;8.686;2023-07-31T01:31:07;3.88;;;1.73;;
25479;SDS011;13393;49.378;8.686;2023-07-31T01:33:35;2.63;;;1.70;;
25479;SDS011;13393;49.378;8.686;2023-07-31T01:36:03;7.07;;;2.50;;
25479;SDS011;13393;49.378;8.686;2023-07-31T01:38:29;2.72;;;1.60;;
25479;SDS011;13393;49.378;8.686;2023-07-31T01:40:56;2.88;;;1.60;;
25479;SDS011;13393;49.378;8.686;2023-07-31T01:43:24;2.67;;;1.70;;
25479;SDS011;13393;49.378;8.686;2023-07-31T01:45:50;4.65;;;1.83;;
25479;SDS011;13393;49.378;8.686;2023-07-31T01:48:17;8.35;;;1.77;;
25479;SDS011;13393;49.378;8.686;2023-07-31T01:50:43;5.90;;;2.10;;
25479;SDS011;13393;49.378;8.686;2023-07-31T01:53:10;4.82;;;1.80;;
25479;SDS011;13393;49.378;8.686;2023-07-31T01:55:37;6.97;;;1.70;;
25479;SDS011;13393;49.378;8.686;2023-07-31T01:58:05;3.65;;;1.67;;
25479;SDS011;13393;49.378;8.686;2023-07-31T02:00:33;2.95;;;1.80;;
25479;SDS011;13393;49.378;8.686;2023-07-31T02:03:00;3.10;;;1.48;;
25479;SDS011;13393;49.378;8.686;2023-07-31T02:05:26;5.40;;;2.00;;
25479;SDS011;13393;49.378;8.686;2023-07-31T02:07:52;5.53;;;1.95;;
25479;SDS011;13393;49.378;8.686;2023-07-31T02:10:19;5.43;;;1.90;;
25479;SDS011;13393;49.378;8.686;2023-07-31T02:12:45;3.33;;;1.77;;
25479;SDS011;13393;49.378;8.686;2023-07-31T02:15:12;3.60;;;1.80;;
25479;SDS011;13393;49.378;8.686;2023-07-31T02:17:40;5.68;;;2.08;;
25479;SDS011;13393;49.378;8.686;2023-07-31T02:20:08;4.72;;;1.80;;
25479;SDS011;13393;49.378;8.686;2023-07-31T02:22:34;5.43;;;2.10;;
25479;SDS011;13393;49.378;8.686;2023-07-31T02:25:01;4.20;;;1.70;;
25479;SDS011;13393;49.378;8.686;2023-07-31T02:27:27;4.93;;;1.75;;
25479;SDS011;13393;49.378;8.686;2023-07-31T02:29:54;4.10;;;2.30;;
25479;SDS011;13393;49.378;8.686;2023-07-31T02:32:21;4.70;;;2.03;;
25479;SDS011;13393;49.378;8.686;2023-07-31T02:34:49;7.28;;;3.00;;
25479;SDS011;13393;49.378;8.686;2023-07-31T02:37:16;4.45;;;2.08;;
25479;SDS011;13393;49.378;8.686;2023-07-31T02:39:43;4.82;;;2.10;;
25479;SDS011;13393;49.378;8.686;2023-07-31T02:42:09;4.63;;;2.28;;
25479;SDS011;13393;49.378;8.686;2023-07-31T02:44:36;3.38;;;1.70;;
25479;SDS011;13393;49.378;8.686;2023-07-31T02:47:02;4.70;;;1.92;;
25479;SDS011;13393;49.378;8.686;2023-07-31T02:49:29;5.32;;;1.92;;
25479;SDS011;13393;49.378;8.686;2023-07-31T02:52:00;2.17;;;1.50;;
25479;SDS011;13393;49.378;8.686;2023-07-31T02:54:26;4.63;;;1.92;;
25479;SDS011;13393;49.378;8.686;2023-07-31T02:56:53;4.45;;;2.08;;
25479;SDS011;13393;49.378;8.686;2023-07-31T02:59:19;5.82;;;2.00;;
25479;SDS011;13393;49.378;8.686;2023-07-31T03:01:46;7.72;;;2.08;;
25479;SDS011;13393;49.378;8.686;2023-07-31T03:04:13;3.35;;;1.70;;
25479;SDS011;13393;49.378;8.686;2023-07-31T03:06:40;3.17;;;1.85;;
25479;SDS011;13393;49.378;8.686;2023-07-31T03:09:08;3.35;;;1.95;;
25479;SDS011;13393;49.378;8.686;2023-07-31T03:11:35;4.32;;;2.05;;
25479;SDS011;13393;49.378;8.686;2023-07-31T03:14:02;4.57;;;2.10;;
25479;SDS011;13393;49.378;8.686;2023-07-31T03:16:28;5.90;;;2.40;;
25479;SDS011;13393;49.378;8.686;2023-07-31T03:18:55;3.90;;;1.92;;
25479;SDS011;13393;49.378;8.686;2023-07-31T03:21:23;2.92;;;1.75;;
25479;SDS011;13393;49.378;8.686;2023-07-31T03:23:49;4.50;;;2.30;;
25479;SDS011;13393;49.378;8.686;2023-07-31T03:26:18;3.72;;;2.08;;
25479;SDS011;13393;49.378;8.686;2023-07-31T03:28:44;5.88;;;1.88;;
25479;SDS011;13393;49.378;8.686;2023-07-31T03:31:11;3.33;;;1.83;;
25479;SDS011;13393;49.378;8.686;2023-07-31T03:33:37;4.90;;;2.13;;
25479;SDS011;13393;49.378;8.686;2023-07-31T03:36:04;8.15;;;2.38;;
25479;SDS011;13393;49.378;8.686;2023-07-31T03:38:33;6.10;;;2.20;;
25479;SDS011;13393;49.378;8.686;2023-07-31T03:40:59;5.15;;;2.13;;
25479;SDS011;13393;49.378;8.686;2023-07-31T03:43:29;6.45;;;1.90;;
25479;SDS011;13393;49.378;8.686;2023-07-31T03:45:56;4.10;;;1.83;;
25479;SDS011;13393;49.378;8.686;2023-07-31T03:48:23;6.28;;;2.00;;
25479;SDS011;13393;49.378;8.686;2023-07-31T03:50:50;7.22;;;2.22;;
25479;SDS011;13393;49.378;8.686;2023-07-31T03:53:16;3.65;;;2.33;;
25479;SDS011;13393;49.378;8.686;2023-07-31T03:55:42;3.90;;;1.98;;
25479;SDS011;13393;49.378;8.686;2023-07-31T03:58:09;3.72;;;1.80;;
25479;SDS011;13393;49.378;8.686;2023-07-31T04:00:39;6.93;;;2.38;;
25479;SDS011;13393;49.378;8.686;2023-07-31T04:03:06;5.32;;;2.08;;
25479;SDS011;13393;49.378;8.686;2023-07-31T04:05:32;4.70;;;1.85;;
25479;SDS011;13393;49.378;8.686;2023-07-31T04:07:59;5.47;;;2.40;;
25479;SDS011;13393;49.378;8.686;2023-07-31T04:10:26;4.15;;;1.98;;
25479;SDS011;13393;49.378;8.686;2023-07-31T04:12:53;5.93;;;2.50;;
25479;SDS011;13393;49.378;8.686;2023-07-31T04:15:19;2.80;;;1.70;;
25479;SDS011;13393;49.378;8.686;2023-07-31T04:17:48;4.80;;;2.22;;
25479;SDS011;13393;49.378;8.686;2023-07-31T04:20:16;6.43;;;2.45;;
25479;SDS011;13393;49.378;8.686;2023-07-31T04:22:43;8.20;;;2.22;;
25479;SDS011;13393;49.378;8.686;2023-07-31T04:25:09;5.90;;;2.40;;
25479;SDS011;13393;49.378;8.686;2023-07-31T04:27:36;5.00;;;1.98;;
25479;SDS011;13393;49.378;8.686;2023-07-31T04:30:03;3.92;;;2.10;;
25479;SDS011;13393;49.378;8.686;2023-07-31T04:32:30;5.85;;;2.22;;
25479;SDS011;13393;49.378;8.686;2023-07-31T04:34:58;5.60;;;2.58;;
25479;SDS011;13393;49.378;8.686;2023-07-31T04:37:24;2.90;;;2.05;;
25479;SDS011;13393;49.378;8.686;2023-07-31T04:39:51;4.20;;;2.50;;
25479;SDS011;13393;49.378;8.686;2023-07-31T04:42:18;4.55;;;2.20;;
25479;SDS011;13393;49.378;8.686;2023-07-31T04:44:44;4.97;;;2.60;;
25479;SDS011;13393;49.378;8.686;2023-07-31T04:47:11;9.25;;;2.50;;
25479;SDS011;13393;49.378;8.686;2023-07-31T04:49:38;5.95;;;2.72;;
25479;SDS011;13393;49.378;8.686;2023-07-31T04:52:07;3.47;;;2.20;;
25479;SDS011;13393;49.378;8.686;2023-07-31T04:54:34;5.57;;;2.40;;
25479;SDS011;13393;49.378;8.686;2023-07-31T04:57:00;5.07;;;2.60;;
25479;SDS011;13393;49.378;8.686;2023-07-31T04:59:27;3.95;;;2.13;;
25479;SDS011;13393;49.378;8.686;2023-07-31T05:01:53;6.03;;;2.40;;
25479;SDS011;13393;49.378;8.686;2023-07-31T05:04:20;6.13;;;2.78;;
25479;SDS011;13393;49.378;8.686;2023-07-31T05:06:46;6.70;;;2.60;;
25479;SDS011;13393;49.378;8.686;2023-07-31T05:09:15;7.53;;;2.60;;
25479;SDS011;13393;49.378;8.686;2023-07-31T05:11:41;4.88;;;2.53;;
25479;SDS011;13393;49.378;8.686;2023-07-31T05:14:08;8.65;;;2.72;;
25479;SDS011;13393;49.378;8.686;2023-07-31T05:16:34;5.55;;;2.22;;
25479;SDS011;13393;49.378;8.686;2023-07-31T05:19:01;7.03;;;3.33;;
25479;SDS011;13393;49.378;8.686;2023-07-31T05:21:27;4.80;;;2.65;;
25479;SDS011;13393;49.378;8.686;2023-07-31T05:23:54;5.40;;;2.45;;
25479;SDS011;13393;49.378;8.686;2023-07-31T05:26:22;6.53;;;2.80;;
25479;SDS011;13393;49.378;8.686;2023-07-31T05:28:49;9.07;;;2.47;;
25479;SDS011;13393;49.378;8.686;2023-07-31T05:31:15;7.45;;;2.33;;
25479;SDS011;13393;49.378;8.686;2023-07-31T05:33:42;7.93;;;2.83;;
25479;SDS011;13393;49.378;8.686;2023-07-31T05:36:09;5.55;;;2.60;;
25479;SDS011;13393;49.378;8.686;2023-07-31T05:38:35;5.68;;;2.38;;
25479;SDS011;13393;49.378;8.686;2023-07-31T05:41:04;4.05;;;2.30;;
25479;SDS011;13393;49.378;8.686;2023-07-31T05:43:32;6.03;;;2.03;;
25479;SDS011;13393;49.378;8.686;2023-07-31T05:45:59;6.03;;;2.10;;
25479;SDS011;13393;49.378;8.686;2023-07-31T05:48:26;6.50;;;2.30;;
25479;SDS011;13393;49.378;8.686;2023-07-31T05:50:52;5.63;;;2.28;;
25479;SDS011;13393;49.378;8.686;2023-07-31T05:53:19;5.63;;;2.38;;
25479;SDS011;13393;49.378;8.686;2023-07-31T05:55:46;7.50;;;2.13;;
25479;SDS011;13393;49.378;8.686;2023-07-31T05:58:13;3.60;;;1.90;;
25479;SDS011;13393;49.378;8.686;2023-07-31T06:00:41;6.47;;;2.40;;
25479;SDS011;13393;49.378;8.686;2023-07-31T06:03:08;6.75;;;2.45;;
25479;SDS011;13393;49.378;8.686;2023-07-31T06:05:34;5.75;;;2.30;;
25479;SDS011;13393;49.378;8.686;2023-07-31T06:08:02;4.72;;;2.33;;
25479;SDS011;13393;49.378;8.686;2023-07-31T06:10:29;4.47;;;2.17;;
25479;SDS011;13393;49.378;8.686;2023-07-31T06:12:56;4.97;;;2.22;;
25479;SDS011;13393;49.378;8.686;2023-07-31T06:15:22;3.72;;;2.08;;
25479;SDS011;13393;49.378;8.686;2023-07-31T06:17:50;4.63;;;2.10;;
25479;SDS011;13393;49.378;8.686;2023-07-31T06:20:17;6.03;;;2.28;;
25479;SDS011;13393;49.378;8.686;2023-07-31T06:22:44;7.63;;;2.42;;
25479;SDS011;13393;49.378;8.686;2023-07-31T06:25:10;3.70;;;2.00;;
25479;SDS011;13393;49.378;8.686;2023-07-31T06:27:36;8.43;;;2.05;;
25479;SDS011;13393;49.378;8.686;2023-07-31T06:30:03;5.22;;;2.10;;
25479;SDS011;13393;49.378;8.686;2023-07-31T06:32:30;3.67;;;2.13;;
25479;SDS011;13393;49.378;8.686;2023-07-31T06:34:58;7.75;;;2.40;;
25479;SDS011;13393;49.378;8.686;2023-07-31T06:37:24;5.60;;;2.28;;
25479;SDS011;13393;49.378;8.686;2023-07-31T06:39:51;4.05;;;2.45;;
25479;SDS011;13393;49.378;8.686;2023-07-31T06:42:18;5.28;;;2.53;;
25479;SDS011;13393;49.378;8.686;2023-07-31T06:44:44;5.20;;;2.08;;
25479;SDS011;13393;49.378;8.686;2023-07-31T06:47:11;4.82;;;2.20;;
25479;SDS011;13393;49.378;8.686;2023-07-31T06:49:37;7.68;;;2.65;;
25479;SDS011;13393;49.378;8.686;2023-07-31T06:52:06;5.70;;;2.35;;
25479;SDS011;13393;49.378;8.686;2023-07-31T06:54:33;4.75;;;2.20;;
25479;SDS011;13393;49.378;8.686;2023-07-31T06:56:59;3.95;;;2.33;;
25479;SDS011;13393;49.378;8.686;2023-07-31T06:59:26;4.63;;;2.25;;
25479;SDS011;13393;49.378;8.686;2023-07-31T07:01:52;7.50;;;2.50;;
25479;SDS011;13393;49.378;8.686;2023-07-31T07:04:19;6.68;;;2.53;;
25479;SDS011;13393;49.378;8.686;2023-07-31T07:06:45;4.53;;;2.58;;
25479;SDS011;13393;49.378;8.686;2023-07-31T07:09:13;7.60;;;2.22;;
25479;SDS011;13393;49.378;8.686;2023-07-31T07:11:40;4.00;;;2.30;;
25479;SDS011;13393;49.378;8.686;2023-07-31T07:14:07;5.82;;;2.30;;
25479;SDS011;13393;49.378;8.686;2023-07-31T07:16:34;5.05;;;2.20;;
25479;SDS011;13393;49.378;8.686;2023-07-31T07:19:00;7.10;;;2.00;;
25479;SDS011;13393;49.378;8.686;2023-07-31T07:21:27;4.88;;;2.50;;
25479;SDS011;13393;49.378;8.686;2023-07-31T07:23:54;4.28;;;2.53;;
25479;SDS011;13393;49.378;8.686;2023-07-31T07:26:22;4.75;;;2.15;;
25479;SDS011;13393;49.378;8.686;2023-07-31T07:28:49;6.78;;;2.38;;
25479;SDS011;13393;49.378;8.686;2023-07-31T07:31:15;4.85;;;2.53;;
25479;SDS011;13393;49.378;8.686;2023-07-31T07:33:42;3.97;;;2.10;;
25479;SDS011;13393;49.378;8.686;2023-07-31T07:36:09;6.22;;;1.90;;
25479;SDS011;13393;49.378;8.686;2023-07-31T07:38:37;7.75;;;2.30;;
25479;SDS011;13393;49.378;8.686;2023-07-31T07:41:04;7.97;;;2.33;;
25479;SDS011;13393;49.378;8.686;2023-07-31T07:43:32;4.28;;;2.30;;
25479;SDS011;13393;49.378;8.686;2023-07-31T07:46:00;6.18;;;2.20;;
25479;SDS011;13393;49.378;8.686;2023-07-31T07:48:27;3.20;;;2.20;;
25479;SDS011;13393;49.378;8.686;2023-07-31T07:50:54;6.13;;;2.38;;
25479;SDS011;13393;49.378;8.686;2023-07-31T07:53:20;6.93;;;2.00;;
25479;SDS011;13393;49.378;8.686;2023-07-31T07:55:47;3.58;;;2.28;;
25479;SDS011;13393;49.378;8.686;2023-07-31T07:58:14;5.60;;;2.20;;
25479;SDS011;13393;49.378;8.686;2023-07-31T08:00:43;4.15;;;2.20;;
25479;SDS011;13393;49.378;8.686;2023-07-31T08:03:14;2.85;;;1.92;;
25479;SDS011;13393;49.378;8.686;2023-07-31T08:05:42;5.15;;;2.10;;
25479;SDS011;13393;49.378;8.686;2023-07-31T08:08:13;6.22;;;2.63;;
25479;SDS011;13393;49.378;8.686;2023-07-31T08:10:40;3.47;;;2.15;;
25479;SDS011;13393;49.378;8.686;2023-07-31T08:13:06;4.90;;;2.03;;
25479;SDS011;13393;49.378;8.686;2023-07-31T08:15:33;9.23;;;2.40;;
25479;SDS011;13393;49.378;8.686;2023-07-31T08:18:01;5.05;;;2.13;;
25479;SDS011;13393;49.378;8.686;2023-07-31T08:20:27;3.78;;;2.17;;
25479;SDS011;13393;49.378;8.686;2023-07-31T08:22:54;6.45;;;1.88;;
25479;SDS011;13393;49.378;8.686;2023-07-31T08:25:21;7.35;;;2.83;;
25479;SDS011;13393;49.378;8.686;2023-07-31T08:27:47;5.60;;;2.33;;
25479;SDS011;13393;49.378;8.686;2023-07-31T08:30:14;3.15;;;1.98;;
25479;SDS011;13393;49.378;8.686;2023-07-31T08:32:41;7.00;;;1.90;;
25479;SDS011;13393;49.378;8.686;2023-07-31T08:35:08;5.78;;;2.08;;
25479;SDS011;13393;49.378;8.686;2023-07-31T08:37:35;6.70;;;2.33;;
25479;SDS011;13393;49.378;8.686;2023-07-31T08:40:03;5.40;;;2.20;;
25479;SDS011;13393;49.378;8.686;2023-07-31T08:42:30;5.28;;;2.30;;
25479;SDS011;13393;49.378;8.686;2023-07-31T08:44:56;6.70;;;2.33;;
25479;SDS011;13393;49.378;8.686;2023-07-31T08:47:24;6.65;;;2.42;;
25479;SDS011;13393;49.378;8.686;2023-07-31T08:49:50;6.00;;;2.45;;
25479;SDS011;13393;49.378;8.686;2023-07-31T08:52:20;4.80;;;2.20;;
25479;SDS011;13393;49.378;8.686;2023-07-31T08:54:47;5.10;;;2.72;;
25479;SDS011;13393;49.378;8.686;2023-07-31T08:57:14;5.22;;;2.47;;
25479;SDS011;13393;49.378;8.686;2023-07-31T08:59:41;6.50;;;2.17;;
25479;SDS011;13393;49.378;8.686;2023-07-31T09:02:08;5.13;;;2.40;;
25479;SDS011;13393;49.378;8.686;2023-07-31T09:04:34;4.78;;;2.20;;
25479;SDS011;13393;49.378;8.686;2023-07-31T09:07:02;7.82;;;2.80;;
25479;SDS011;13393;49.378;8.686;2023-07-31T09:09:30;3.38;;;2.15;;
25479;SDS011;13393;49.378;8.686;2023-07-31T09:12:01;4.13;;;2.33;;
25479;SDS011;13393;49.378;8.686;2023-07-31T09:14:27;7.53;;;2.40;;
25479;SDS011;13393;49.378;8.686;2023-07-31T09:16:54;4.53;;;2.45;;
25479;SDS011;13393;49.378;8.686;2023-07-31T09:19:27;6.32;;;2.17;;
25479;SDS011;13393;49.378;8.686;2023-07-31T09:21:54;5.07;;;2.40;;
25479;SDS011;13393;49.378;8.686;2023-07-31T09:24:27;5.50;;;2.78;;
25479;SDS011;13393;49.378;8.686;2023-07-31T09:26:56;9.13;;;2.67;;
25479;SDS011;13393;49.378;8.686;2023-07-31T09:29:25;7.90;;;2.35;;
25479;SDS011;13393;49.378;8.686;2023-07-31T09:31:52;8.07;;;2.45;;
25479;SDS011;13393;49.378;8.686;2023-07-31T09:34:19;5.50;;;2.47;;
25479;SDS011;13393;49.378;8.686;2023-07-31T09:36:46;6.72;;;2.53;;
25479;SDS011;13393;49.378;8.686;2023-07-31T09:39:13;6.00;;;2.80;;
25479;SDS011;13393;49.378;8.686;2023-07-31T09:41:41;4.93;;;2.35;;
25479;SDS011;13393;49.378;8.686;2023-07-31T09:44:10;7.78;;;2.90;;
25479;SDS011;13393;49.378;8.686;2023-07-31T09:46:37;10.20;;;3.40;;
25479;SDS011;13393;49.378;8.686;2023-07-31T09:49:04;4.75;;;2.45;;
25479;SDS011;13393;49.378;8.686;2023-07-31T09:51:32;6.63;;;2.55;;
25479;SDS011;13393;49.378;8.686;2023-07-31T09:54:03;5.78;;;3.22;;
25479;SDS011;13393;49.378;8.686;2023-07-31T09:56:30;4.63;;;2.58;;
25479;SDS011;13393;49.378;8.686;2023-07-31T09:58:59;7.68;;;3.15;;
25479;SDS011;13393;49.378;8.686;2023-07-31T10:01:27;6.38;;;2.80;;
25479;SDS011;13393;49.378;8.686;2023-07-31T10:03:54;7.57;;;2.67;;
25479;SDS011;13393;49.378;8.686;2023-07-31T10:06:22;4.70;;;2.75;;
25479;SDS011;13393;49.378;8.686;2023-07-31T10:08:55;4.80;;;2.95;;
25479;SDS011;13393;49.378;8.686;2023-07-31T10:11:22;4.50;;;2.63;;
25479;SDS011;13393;49.378;8.686;2023-07-31T10:13:50;5.32;;;2.75;;
25479;SDS011;13393;49.378;8.686;2023-07-31T10:16:19;6.18;;;2.90;;
25479;SDS011;13393;49.378;8.686;2023-07-31T10:18:49;5.68;;;2.55;;
25479;SDS011;13393;49.378;8.686;2023-07-31T10:21:16;6.22;;;3.00;;
25479;SDS011;13393;49.378;8.686;2023-07-31T10:23:44;4.40;;;2.50;;
25479;SDS011;13393;49.378;8.686;2023-07-31T10:26:11;6.22;;;2.45;;
25479;SDS011;13393;49.378;8.686;2023-07-31T10:28:39;7.97;;;3.03;;
25479;SDS011;13393;49.378;8.686;2023-07-31T10:31:08;8.32;;;2.67;;
25479;SDS011;13393;49.378;8.686;2023-07-31T10:33:34;7.65;;;2.83;;
25479;SDS011;13393;49.378;8.686;2023-07-31T10:36:13;9.23;;;2.70;;
25479;SDS011;13393;49.378;8.686;2023-07-31T10:38:41;4.88;;;2.60;;
25479;SDS011;13393;49.378;8.686;2023-07-31T10:41:08;7.47;;;3.03;;
25479;SDS011;13393;49.378;8.686;2023-07-31T10:43:35;7.28;;;2.80;;
25479;SDS011;13393;49.378;8.686;2023-07-31T10:46:06;9.18;;;2.90;;
25479;SDS011;13393;49.378;8.686;2023-07-31T10:48:33;8.23;;;2.80;;
25479;SDS011;13393;49.378;8.686;2023-07-31T10:51:00;6.28;;;3.05;;
25479;SDS011;13393;49.378;8.686;2023-07-31T10:53:29;8.63;;;3.17;;
25479;SDS011;13393;49.378;8.686;2023-07-31T10:55:58;5.72;;;2.85;;
25479;SDS011;13393;49.378;8.686;2023-07-31T10:58:26;8.75;;;3.08;;
25479;SDS011;13393;49.378;8.686;2023-07-31T11:00:54;7.35;;;2.67;;
25479;SDS011;13393;49.378;8.686;2023-07-31T11:03:25;5.30;;;2.92;;
25479;SDS011;13393;49.378;8.686;2023-07-31T11:05:52;8.45;;;3.28;;
25479;SDS011;13393;49.378;8.686;2023-07-31T11:08:20;5.45;;;2.80;;
25479;SDS011;13393;49.378;8.686;2023-07-31T11:10:50;7.82;;;2.50;;
25479;SDS011;13393;49.378;8.686;2023-07-31T11:13:16;8.55;;;3.00;;
25479;SDS011;13393;49.378;8.686;2023-07-31T11:15:43;6.15;;;2.72;;
25479;SDS011;13393;49.378;8.686;2023-07-31T11:18:10;9.25;;;3.20;;
25479;SDS011;13393;49.378;8.686;2023-07-31T11:20:37;4.80;;;2.63;;
25479;SDS011;13393;49.378;8.686;2023-07-31T11:23:05;7.80;;;2.67;;
25479;SDS011;13393;49.378;8.686;2023-07-31T11:25:32;4.35;;;2.72;;
25479;SDS011;13393;49.378;8.686;2023-07-31T11:28:03;5.25;;;2.78;;
25479;SDS011;13393;49.378;8.686;2023-07-31T11:30:29;6.15;;;3.25;;
25479;SDS011;13393;49.378;8.686;2023-07-31T11:32:56;4.95;;;2.75;;
25479;SDS011;13393;49.378;8.686;2023-07-31T11:35:22;7.18;;;2.60;;
25479;SDS011;13393;49.378;8.686;2023-07-31T11:37:49;6.45;;;2.70;;
25479;SDS011;13393;49.378;8.686;2023-07-31T11:40:17;4.65;;;2.72;;
25479;SDS011;13393;49.378;8.686;2023-07-31T11:42:45;4.47;;;2.42;;
25479;SDS011;13393;49.378;8.686;2023-07-31T11:45:14;4.80;;;2.58;;
25479;SDS011;13393;49.378;8.686;2023-07-31T11:47:40;6.70;;;2.78;;
25479;SDS011;13393;49.378;8.686;2023-07-31T11:50:10;5.13;;;2.33;;
25479;SDS011;13393;49.378;8.686;2023-07-31T11:52:38;4.75;;;2.65;;
25479;SDS011;13393;49.378;8.686;2023-07-31T11:55:07;5.10;;;2.90;;
25479;SDS011;13393;49.378;8.686;2023-07-31T11:57:35;5.60;;;2.88;;
25479;SDS011;13393;49.378;8.686;2023-07-31T12:00:02;4.28;;;2.70;;
25479;SDS011;13393;49.378;8.686;2023-07-31T12:02:31;7.88;;;2.75;;
25479;SDS011;13393;49.378;8.686;2023-07-31T12:04:59;7.03;;;2.75;;
25479;SDS011;13393;49.378;8.686;2023-07-31T12:07:26;4.85;;;2.65;;
25479;SDS011;13393;49.378;8.686;2023-07-31T12:09:53;4.97;;;2.60;;
25479;SDS011;13393;49.378;8.686;2023-07-31T12:12:20;3.90;;;2.50;;
25479;SDS011;13393;49.378;8.686;2023-07-31T12:14:47;4.32;;;2.80;;
25479;SDS011;13393;49.378;8.686;2023-07-31T12:17:16;8.85;;;2.30;;
25479;SDS011;13393;49.378;8.686;2023-07-31T12:19:44;4.15;;;2.35;;
25479;SDS011;13393;49.378;8.686;2023-07-31T12:22:11;5.07;;;2.50;;
25479;SDS011;13393;49.378;8.686;2023-07-31T12:24:42;4.28;;;2.50;;
25479;SDS011;13393;49.378;8.686;2023-07-31T12:27:10;8.05;;;2.67;;
25479;SDS011;13393;49.378;8.686;2023-07-31T12:29:37;7.10;;;2.90;;
25479;SDS011;13393;49.378;8.686;2023-07-31T12:32:04;8.40;;;3.30;;
25479;SDS011;13393;49.378;8.686;2023-07-31T12:34:35;5.32;;;2.95;;
25479;SDS011;13393;49.378;8.686;2023-07-31T12:37:09;4.45;;;2.30;;
25479;SDS011;13393;49.378;8.686;2023-07-31T12:39:35;5.65;;;2.95;;
25479;SDS011;13393;49.378;8.686;2023-07-31T12:42:02;5.20;;;2.67;;
25479;SDS011;13393;49.378;8.686;2023-07-31T12:44:29;4.10;;;2.53;;
25479;SDS011;13393;49.378;8.686;2023-07-31T12:46:56;6.07;;;2.72;;
25479;SDS011;13393;49.378;8.686;2023-07-31T12:49:22;6.18;;;2.80;;
25479;SDS011;13393;49.378;8.686;2023-07-31T12:51:50;6.63;;;2.80;;
25479;SDS011;13393;49.378;8.686;2023-07-31T12:54:20;4.13;;;2.78;;
25479;SDS011;13393;49.378;8.686;2023-07-31T12:56:47;7.75;;;2.70;;
25479;SDS011;13393;49.378;8.686;2023-07-31T12:59:14;5.50;;;3.22;;
25479;SDS011;13393;49.378;8.686;2023-07-31T13:01:40;4.30;;;2.38;;
25479;SDS011;13393;49.378;8.686;2023-07-31T13:04:07;5.57;;;2.70;;
25479;SDS011;13393;49.378;8.686;2023-07-31T13:06:34;9.82;;;2.92;;
25479;SDS011;13393;49.378;8.686;2023-07-31T13:09:01;9.00;;;2.80;;
25479;SDS011;13393;49.378;8.686;2023-07-31T13:11:29;5.25;;;2.67;;
25479;SDS011;13393;49.378;8.686;2023-07-31T13:13:56;4.30;;;2.75;;
25479;SDS011;13393;49.378;8.686;2023-07-31T13:16:22;5.68;;;2.38;;
25479;SDS011;13393;49.378;8.686;2023-07-31T13:18:52;5.10;;;2.60;;
25479;SDS011;13393;49.378;8.686;2023-07-31T13:21:19;9.10;;;3.15;;
25479;SDS011;13393;49.378;8.686;2023-07-31T13:23:47;6.32;;;3.10;;
25479;SDS011;13393;49.378;8.686;2023-07-31T13:26:14;6.43;;;3.03;;
25479;SDS011;13393;49.378;8.686;2023-07-31T13:28:41;6.68;;;3.00;;
25479;SDS011;13393;49.378;8.686;2023-07-31T13:31:11;5.47;;;2.83;;
25479;SDS011;13393;49.378;8.686;2023-07-31T13:33:37;4.30;;;2.22;;
25479;SDS011;13393;49.378;8.686;2023-07-31T13:36:04;7.72;;;3.42;;
25479;SDS011;13393;49.378;8.686;2023-07-31T13:38:31;6.53;;;2.67;;
25479;SDS011;13393;49.378;8.686;2023-07-31T13:41:00;7.38;;;2.90;;
25479;SDS011;13393;49.378;8.686;2023-07-31T13:43:27;4.00;;;2.55;;
25479;SDS011;13393;49.378;8.686;2023-07-31T13:45:55;5.30;;;2.50;;
25479;SDS011;13393;49.378;8.686;2023-07-31T13:48:21;5.13;;;2.70;;
25479;SDS011;13393;49.378;8.686;2023-07-31T13:50:48;4.32;;;2.67;;
25479;SDS011;13393;49.378;8.686;2023-07-31T13:53:14;6.32;;;2.75;;
25479;SDS011;13393;49.378;8.686;2023-07-31T13:55:41;4.32;;;2.50;;
25479;SDS011;13393;49.378;8.686;2023-07-31T13:58:10;5.78;;;2.55;;
25479;SDS011;13393;49.378;8.686;2023-07-31T14:00:37;6.78;;;2.92;;
25479;SDS011;13393;49.378;8.686;2023-07-31T14:03:06;5.00;;;2.50;;
25479;SDS011;13393;49.378;8.686;2023-07-31T14:05:33;4.88;;;2.60;;
25479;SDS011;13393;49.378;8.686;2023-07-31T14:08:00;4.18;;;2.53;;
25479;SDS011;13393;49.378;8.686;2023-07-31T14:10:28;6.32;;;2.75;;
25479;SDS011;13393;49.378;8.686;2023-07-31T14:12:55;4.68;;;2.67;;
25479;SDS011;13393;49.378;8.686;2023-07-31T14:15:22;12.68;;;2.72;;
25479;SDS011;13393;49.378;8.686;2023-07-31T14:17:48;10.38;;;3.30;;
25479;SDS011;13393;49.378;8.686;2023-07-31T14:20:16;5.53;;;2.80;;
25479;SDS011;13393;49.378;8.686;2023-07-31T14:22:42;7.45;;;3.17;;
25479;SDS011;13393;49.378;8.686;2023-07-31T14:25:10;4.82;;;2.63;;
25479;SDS011;13393;49.378;8.686;2023-07-31T14:27:36;5.13;;;2.70;;
25479;SDS011;13393;49.378;8.686;2023-07-31T14:30:03;5.85;;;3.00;;
25479;SDS011;13393;49.378;8.686;2023-07-31T14:32:30;6.72;;;2.50;;
25479;SDS011;13393;49.378;8.686;2023-07-31T14:34:57;7.15;;;2.90;;
25479;SDS011;13393;49.378;8.686;2023-07-31T14:37:25;6.00;;;2.90;;
25479;SDS011;13393;49.378;8.686;2023-07-31T14:39:52;5.47;;;2.88;;
25479;SDS011;13393;49.378;8.686;2023-07-31T14:42:19;5.35;;;2.95;;
25479;SDS011;13393;49.378;8.686;2023-07-31T14:44:46;5.20;;;2.75;;
25479;SDS011;13393;49.378;8.686;2023-07-31T14:47:14;5.68;;;2.63;;
25479;SDS011;13393;49.378;8.686;2023-07-31T14:49:43;5.65;;;2.78;;